»·PEaware :: SKW3170 KSNA-KSJC

SKW3170 :: KSNA-KSJC

FLIGHT INFORMATION

Flight Status: Arrived
Operator:
SkyWest Airlines
More flights by this operator :: More flights under this callsign
Pilot: Chris O. (30060)
Aircraft: EMBRAER EMB-170/175
(E170)
More flights by this aircraft type
Origin: KSNA John Wayne-Orange Co
United States
Destination: KSJC Mineta San Jose Intl
United States
More flights between these airports :: More routes between these airports
Route: HHERO3 IKAYE TESEA SCTRR TROXX SILCN6
File this flight plan on PilotEdge
Remarks: RMK / SIMBRIEF
Altitude:
(Current/Filed)
30,000ft
Speed:
(Current/Filed)
462kts
Departed: 30-Jul-22 06:35 PM
Arrived: 30-Jul-22 07:27 PM
Distance/Time
Traveled:
297nm/0:52
Distance/Time
To Go:
Arrived

Flight Plot

Page will automatically refresh every two minutes.

Flight plan parsing failed; only flown route is shown


Map Options




Map Legend


Flown Route
Filed Route
Departure Airport
Arrival Airport
Navaid (VOR, NDB)
Fix

Horizontal Profiles

Position Reports

Time Latitude Longitude Heading Altitude Ground
Speed
30-Jul-22 18:22 33.676804 -117.863908 118 63ft 0kts
30-Jul-22 18:23 33.676804 -117.863908 118 63ft 0kts
30-Jul-22 18:24 33.676804 -117.863908 118 63ft 0kts
30-Jul-22 18:25 33.676804 -117.863908 118 63ft 0kts
30-Jul-22 18:26 33.676804 -117.863908 118 63ft 0kts
30-Jul-22 18:27 33.676804 -117.863908 118 63ft 0kts
30-Jul-22 18:28 33.676997 -117.864341 111 63ft 3kts
30-Jul-22 18:29 33.676882 -117.864808 32 63ft 0kts
30-Jul-22 18:30 33.676885 -117.864805 32 63ft 0kts
30-Jul-22 18:31 33.680358 -117.862676 340 63ft 12kts
30-Jul-22 18:32 33.681172 -117.864254 300 63ft 0kts
30-Jul-22 18:33 33.681217 -117.864345 299 63ft 2kts
30-Jul-22 18:34 33.667410 -117.874114 209 186ft 193kts
30-Jul-22 18:35 33.612412 -117.893074 186 3282ft 202kts
30-Jul-22 18:36 33.549739 -117.921965 224 6688ft 285kts
30-Jul-22 18:37 33.490817 -117.990498 223 9193ft 301kts
30-Jul-22 18:38 33.441469 -118.081728 239 12740ft 373kts
30-Jul-22 18:39 33.411687 -118.203097 270 16155ft 393kts
30-Jul-22 18:40 33.446317 -118.316178 301 19301ft 411kts
30-Jul-22 18:41 33.500301 -118.439412 297 22716ft 430kts
30-Jul-22 18:42 33.567970 -118.560359 307 26130ft 449kts
30-Jul-22 18:43 33.645756 -118.680561 311 29523ft 460kts
30-Jul-22 18:44 33.749282 -118.771708 341 29991ft 479kts
30-Jul-22 18:45 33.869225 -118.839133 332 30000ft 476kts
30-Jul-22 18:46 33.986114 -118.912023 332 30000ft 476kts
30-Jul-22 18:47 34.102123 -118.984612 332 30000ft 476kts
30-Jul-22 18:48 34.205671 -119.076945 306 29990ft 476kts
30-Jul-22 18:49 34.296589 -119.193304 315 29990ft 478kts
30-Jul-22 18:50 34.385563 -119.299815 315 29990ft 480kts
30-Jul-22 18:51 34.480002 -119.413289 315 29991ft 480kts
30-Jul-22 18:52 34.574455 -119.527132 315 29982ft 480kts
30-Jul-22 18:53 34.667565 -119.639735 315 29982ft 480kts
30-Jul-22 18:54 34.763025 -119.755573 314 29989ft 481kts
30-Jul-22 18:55 34.857915 -119.871118 314 30010ft 484kts
30-Jul-22 18:56 34.952635 -119.986858 314 30010ft 484kts
30-Jul-22 18:57 35.047453 -120.103111 314 30020ft 483kts
30-Jul-22 18:58 35.141652 -120.219024 314 30017ft 483kts
30-Jul-22 18:59 35.245158 -120.323246 322 29999ft 488kts
30-Jul-22 19:00 35.353250 -120.422305 322 29999ft 486kts
30-Jul-22 19:01 35.460577 -120.520980 322 30000ft 486kts
30-Jul-22 19:02 35.570896 -120.616568 327 29999ft 487kts
30-Jul-22 19:03 35.684728 -120.705833 326 30000ft 487kts
30-Jul-22 19:04 35.797605 -120.794689 326 29722ft 472kts
30-Jul-22 19:05 35.903186 -120.878102 326 27905ft 443kts
30-Jul-22 19:06 36.005276 -120.958998 326 26244ft 432kts
30-Jul-22 19:07 36.104777 -121.038033 326 24704ft 425kts
30-Jul-22 19:08 36.203466 -121.116557 327 23124ft 414kts
30-Jul-22 19:09 36.298825 -121.192637 327 21564ft 401kts
30-Jul-22 19:10 36.390753 -121.266026 328 20019ft 389kts
30-Jul-22 19:11 36.479897 -121.337262 329 18423ft 378kts
30-Jul-22 19:12 36.566977 -121.406750 328 16398ft 367kts
30-Jul-22 19:13 36.650769 -121.473625 327 14373ft 353kts
30-Jul-22 19:14 36.731828 -121.538478 327 12345ft 341kts
30-Jul-22 19:15 36.809211 -121.600276 332 11016ft 308kts
30-Jul-22 19:16 36.889851 -121.626609 348 9347ft 299kts
30-Jul-22 19:17 36.970502 -121.647329 348 7603ft 294kts
30-Jul-22 19:18 37.049724 -121.667507 342 5853ft 287kts
30-Jul-22 19:19 37.121408 -121.694884 338 4051ft 264kts
30-Jul-22 19:20 37.184062 -121.734158 320 3650ft 257kts
30-Jul-22 19:21 37.236546 -121.788237 314 2682ft 220kts
30-Jul-22 19:22 37.272233 -121.830366 313 2447ft 182kts
30-Jul-22 19:23 37.306186 -121.868261 316 1756ft 152kts
30-Jul-22 19:24 37.335235 -121.899551 313 618ft 145kts
30-Jul-22 19:25 37.361244 -121.928404 318 54ft 104kts
30-Jul-22 19:26 37.368971 -121.931785 55 42ft 10kts

Navigation Log

Ident Type
Flight plan parsing failed, navigation log unavailable